LRBS/BBU METAR and TAF weather

Enter ICAO airport designator
Station Type Date Time Source
LRBS METAR 2019/08/26 08:00 UTC NOAA

LRBS 260800Z 06011KT CAVOK 29/17 Q1022 R07/29//95 NOSIG


Station Type Date Time Source
LRBS Decoded METAR 2019/08/26 08:00 UTC NOAA

Station name not available
Aug 26, 2019 - 04:00 AM EDT / 2019.08.26 0800 UTC
Wind: from the ENE (060 degrees) at 13 MPH (11 KT):0
Visibility: greater than 7 mile(s):0
Temperature: 84 F (29 C)
Dew Point: 62 F (17 C)
Relative Humidity: 48%
Pressure (altimeter): 30.18 in. Hg (1022 hPa)
ob: LRBS 260800Z 06011KT CAVOK 29/17 Q1022 R07/29//95 NOSIG
cycle: 8

Station Type Date Time Source
LRBS TAF 2019/08/26 06:36 UTC NOAA

TAF LRBS 260500Z 2606/2706 06010KT CAVOK
TEMPO 2613/2618 SCT045CB PROB30
TEMPO 2614/2617 VRB20KT 3000 TSRA BKN010 BKN030CB
BECMG 2618/2620 VRB04KT

Example: see airport list